map of ADW home
ADW - Airport
Location
City:  Camp Springs, Maryland, United States
Name:Joint Base Andrews
ICAO:KADW
IATA:ADW
FAA LID:ADW

Details
Type:Airport (Airfield)
Use:Military
Latitude:3848'39"N (38.810794)
Longitude:7652'03"W (-76.867381)
Datum:WGS 1984
Elevation:279 ft (85 m)
Variation:10.92W (WMM2015 magnetic declination)
-0.01 annual change
Runways:2
Longest:11318 × 200 ft (3450 × 61 m), paved

Time
Time Zone:UTC-5 (DST-4)
Local Time:

Weather
METAR:KADW 181556Z AUTO 26007KT 10SM SCT013 SCT160 BKN190 BKN210 27/23 A2977 RMK AO2 DZE19 SLP085 P0000 T02660228 $

Related Locations
Nearby:
Farthest:YAUG: 11705 mi / 18837 km
Augusta [Augusta Airport], WA, AU

Find:

   beyond  
but within

Other Information
Maps:
Delays:
NOTAMs:
Links:
Sources:

  
  • flag of United States
  • flag of Maryland
  

Airport Diagram

Airport diagram for ADW

Airport diagram PDF

Sectional Chart

Flight Planning
at skyvector.com

Satellite Image

Google Maps Satellite view

 

Copyright © 2004-2018 Karl L. Swartz. All rights reserved.
The Great Circle Mapper name and logo are trademarks of the Great Circle Mapper.
All other trademarks mentioned herein belong to their respective owners.
Please see credits for attibutions and further copyright information.

  Follow gcmap on Facebook Follow gcmap on Twitter Follow gcmap on Google+ GCmap on LinkedIn

hCard Microformat

Geo Microformat